Time;durP1;ratioP1;P1;durP2;ratioP2;P2;SDS_P1;SDS_P2;PMS_P1;PMS_P2;Temp;Humidity;BMP_temperature;BMP_pressure;BME280_temperature;BME280_humidity;BME280_pressure;Samples;Min_cycle;Max_cycle;Signal;HPM_P1;HPM_P2
2021/05/03 00:01:58;;;;;;;10.27;7.72;;;;;;;-139.48;100.00;61774.03;5007990;28;20055;-67
2021/05/03 00:04:42;;;;;;;10.77;7.20;;;;;;;-139.48;100.00;61774.03;5036461;28;20099;-67
2021/05/03 00:07:26;;;;;;;10.18;7.18;;;;;;;-139.48;100.00;61774.03;5021271;28;20107;-67
2021/05/03 00:10:10;;;;;;;9.52;7.68;;;;;;;-139.48;100.00;61774.03;5036509;28;20048;-67
2021/05/03 00:12:54;;;;;;;7.82;6.60;;;;;;;-139.48;100.00;61774.03;5007851;28;20130;-67
2021/05/03 00:15:38;;;;;;;8.23;6.57;;;;;;;-139.48;100.00;61774.03;5021295;28;20056;-67
2021/05/03 00:18:22;;;;;;;8.95;5.97;;;;;;;-139.48;100.00;61774.03;5036059;28;20429;-67
2021/05/03 00:21:06;;;;;;;11.05;6.88;;;;;;;-139.48;100.00;61774.03;5007669;28;20044;-67
2021/05/03 00:23:50;;;;;;;9.82;7.30;;;;;;;-139.48;100.00;61774.03;5021163;28;20095;-67
2021/05/03 00:26:33;;;;;;;7.22;5.68;;;;;;;-139.48;100.00;61774.03;5019817;28;20056;-67
2021/05/03 00:29:17;;;;;;;11.88;7.85;;;;;;;-139.48;100.00;61774.03;5020853;28;20075;-67
2021/05/03 00:32:01;;;;;;;10.10;7.15;;;;;;;-139.48;100.00;61774.03;5035757;28;20124;-67
2021/05/03 00:34:45;;;;;;;11.40;7.68;;;;;;;-139.48;100.00;61774.03;5035664;28;20053;-67
2021/05/03 00:37:29;;;;;;;12.13;8.60;;;;;;;-139.48;100.00;61774.03;5035611;28;20049;-67
2021/05/03 00:40:13;;;;;;;11.23;8.40;;;;;;;-139.48;100.00;61774.03;5020867;28;20414;-67
2021/05/03 00:42:57;;;;;;;13.32;8.43;;;;;;;-139.48;100.00;61774.03;5020588;28;20064;-67
2021/05/03 00:45:41;;;;;;;12.50;8.60;;;;;;;-139.48;100.00;61774.03;5020538;28;20095;-67
2021/05/03 00:48:25;;;;;;;11.43;8.80;;;;;;;-139.48;100.00;61774.03;5035600;28;20579;-67
2021/05/03 00:51:09;;;;;;;11.50;8.48;;;;;;;-139.48;100.00;61774.03;5020665;28;20072;-67
2021/05/03 00:53:53;;;;;;;12.20;9.07;;;;;;;-139.48;100.00;61774.03;5035560;28;20118;-67
2021/05/03 00:56:37;;;;;;;13.73;9.57;;;;;;;-139.48;100.00;61774.03;5020596;28;20099;-67
2021/05/03 00:59:21;;;;;;;12.30;9.27;;;;;;;-139.48;100.00;61774.03;5035269;28;20164;-67
2021/05/03 01:02:04;;;;;;;15.02;9.43;;;;;;;-139.48;100.00;61774.03;5006671;28;20406;-67
2021/05/03 01:04:48;;;;;;;16.65;9.70;;;;;;;-139.48;100.00;61774.03;5020428;28;20048;-67
2021/05/03 01:07:32;;;;;;;12.77;10.23;;;;;;;-139.48;100.00;61774.03;5020358;28;20045;-67
2021/05/03 01:10:16;;;;;;;14.70;10.48;;;;;;;-139.48;100.00;61774.03;5035353;28;20406;-67
2021/05/03 01:13:00;;;;;;;14.55;10.07;;;;;;;-139.48;100.00;61774.03;5020265;28;20056;-67
2021/05/03 01:15:44;;;;;;;15.27;10.52;;;;;;;-139.48;100.00;61774.03;5019880;28;20057;-67
2021/05/03 01:18:29;;;;;;;13.90;10.63;;;;;;;-139.48;100.00;61774.03;5034848;28;20133;-67
2021/05/03 01:21:24;;;;;;;17.10;10.23;;;;;;;-139.48;100.00;61774.03;5034825;28;20048;-67
2021/05/03 01:24:09;;;;;;;15.43;10.50;;;;;;;-139.48;100.00;61774.03;5035176;28;20099;-67
2021/05/03 01:26:53;;;;;;;17.75;10.50;;;;;;;-139.48;100.00;61774.03;5034621;28;20132;-67
2021/05/03 01:29:37;;;;;;;16.40;10.80;;;;;;;-139.48;100.00;61774.03;5034970;28;20418;-67
2021/05/03 01:32:21;;;;;;;17.80;11.82;;;;;;;-139.48;100.00;61774.03;5034732;28;20052;-67
2021/05/03 01:35:05;;;;;;;15.77;10.68;;;;;;;-139.48;100.00;61774.03;5034525;28;20525;-67
2021/05/03 01:37:56;;;;;;;15.52;11.63;;;;;;;-139.48;100.00;61774.03;5019034;28;20095;-67
2021/05/03 01:40:41;;;;;;;16.63;13.02;;;;;;;-139.48;100.00;61774.03;5034845;28;20103;-67
2021/05/03 01:43:27;;;;;;;16.77;12.57;;;;;;;-139.48;100.00;61774.03;5019719;28;20080;-67
2021/05/03 01:46:11;;;;;;;19.15;12.90;;;;;;;-139.48;100.00;61774.03;5005981;28;20108;-67
2021/05/03 01:48:58;;;;;;;16.95;12.38;;;;;;;-139.48;100.00;61774.03;5005319;28;20048;-67
2021/05/03 01:51:42;;;;;;;17.08;12.88;;;;;;;-139.48;100.00;61774.03;5034785;28;20134;-67
2021/05/03 01:54:27;;;;;;;17.42;13.32;;;;;;;-139.48;100.00;61774.03;5005629;28;20168;-67
2021/05/03 01:57:11;;;;;;;16.45;12.90;;;;;;;-139.48;100.00;61774.03;5005455;28;20128;-68
2021/05/03 01:59:55;;;;;;;18.63;12.75;;;;;;;-139.48;100.00;61774.03;5005578;28;20107;-67
2021/05/03 02:02:39;;;;;;;19.48;13.68;;;;;;;-139.48;100.00;61774.03;5034360;28;20409;-67
2021/05/03 02:05:25;;;;;;;20.40;14.73;;;;;;;-139.48;100.00;61774.03;5019051;28;20414;-67
2021/05/03 02:08:09;;;;;;;19.33;14.85;;;;;;;-139.48;100.00;61774.03;5035460;28;20075;-67
2021/05/03 02:10:54;;;;;;;19.20;13.82;;;;;;;-139.48;100.00;61774.03;5005448;28;20056;-67
2021/05/03 02:13:38;;;;;;;18.20;14.10;;;;;;;-139.48;100.00;61774.03;5005541;28;20103;-67
2021/05/03 02:16:23;;;;;;;22.35;14.85;;;;;;;-139.48;100.00;61774.03;5018945;28;20422;-67
2021/05/03 02:19:07;;;;;;;19.85;14.90;;;;;;;-139.48;100.00;61774.03;5005526;28;20144;-67
2021/05/03 02:21:51;;;;;;;19.85;14.77;;;;;;;-139.48;100.00;61774.03;5005545;28;20064;-67
2021/05/03 02:24:35;;;;;;;;;;;;;;;-139.48;100.00;61774.03;5005765;28;20133;-67
2021/05/03 02:27:19;;;;;;;20.90;14.63;;;;;;;-139.48;100.00;61774.03;5005388;28;19920;-67
2021/05/03 02:30:05;;;;;;;19.10;14.63;;;;;;;-139.48;100.00;61774.03;5033942;28;20056;-67
2021/05/03 02:32:49;;;;;;;22.10;14.45;;;;;;;-139.48;100.00;61774.03;5018653;28;20154;-67
2021/05/03 02:35:34;;;;;;;23.52;15.35;;;;;;;-139.48;100.00;61774.03;5005136;28;20095;-67
2021/05/03 02:38:18;;;;;;;23.02;15.88;;;;;;;-139.48;100.00;61774.03;5018817;28;20569;-67
2021/05/03 02:41:02;;;;;;;22.38;16.05;;;;;;;-139.48;100.00;61774.03;5005019;28;20099;-67
2021/05/03 02:43:47;;;;;;;22.13;15.68;;;;;;;-139.48;100.00;61774.03;5019178;28;20598;-67
2021/05/03 02:46:31;;;;;;;21.83;15.77;;;;;;;-139.48;100.00;61774.03;5005024;28;20091;-67
2021/05/03 02:49:15;;;;;;;20.20;14.30;;;;;;;-139.48;100.00;61774.03;5004369;28;20051;-67
2021/05/03 02:52:00;;;;;;;19.70;14.65;;;;;;;-139.48;100.00;61774.03;5033483;28;20130;-65
2021/05/03 02:54:45;;;;;;;25.77;15.50;;;;;;;-139.48;100.00;61774.03;5004599;28;20052;-67
2021/05/03 03:00:20;;;;;;;22.27;15.25;;;;;;;-139.48;100.00;61774.03;5012479;28;20120;-65
2021/05/03 03:03:04;;;;;;;20.23;14.30;;;;;;;-139.48;100.00;61774.03;5013434;28;20510;-66
2021/05/03 03:05:48;;;;;;;21.73;15.07;;;;;;;-139.48;100.00;61774.03;4984991;28;20048;-67
2021/05/03 03:08:45;;;;;;;20.63;13.93;;;;;;;-139.48;100.00;61774.03;5013302;28;20573;-67
2021/05/03 03:11:29;;;;;;;22.85;15.85;;;;;;;-139.48;100.00;61774.03;5013626;28;20099;-67
2021/05/03 03:14:14;;;;;;;24.40;16.10;;;;;;;-139.48;100.00;61774.03;4998471;28;20506;-67
2021/05/03 03:16:57;;;;;;;21.08;15.32;;;;;;;-139.48;100.00;61774.03;5013509;28;20140;-67
2021/05/03 03:19:41;;;;;;;23.95;15.18;;;;;;;-139.48;100.00;61774.03;5013798;28;20549;-66
2021/05/03 03:22:25;;;;;;;23.33;16.35;;;;;;;-139.48;100.00;61774.03;4998513;28;20100;-67
2021/05/03 03:25:09;;;;;;;21.58;14.98;;;;;;;-139.48;100.00;61774.03;4998426;28;20113;-67
2021/05/03 03:27:54;;;;;;;23.23;16.10;;;;;;;-139.48;100.00;61774.03;4998615;28;20407;-67
2021/05/03 03:30:37;;;;;;;21.73;15.90;;;;;;;-139.48;100.00;61774.03;5013462;28;20052;-67
2021/05/03 03:33:21;;;;;;;20.98;15.18;;;;;;;-139.48;100.00;61774.03;4998582;28;20461;-67
2021/05/03 03:36:06;;;;;;;22.00;15.43;;;;;;;-139.48;100.00;61774.03;4998494;28;20049;-67
2021/05/03 03:38:50;;;;;;;23.10;16.00;;;;;;;-139.48;100.00;61774.03;4998235;28;20540;-67
2021/05/03 03:41:34;;;;;;;23.17;16.60;;;;;;;-139.48;100.00;61774.03;5013129;28;20048;-67
2021/05/03 03:44:18;;;;;;;23.08;16.45;;;;;;;-139.48;100.00;61774.03;4998484;28;20053;-67
2021/05/03 03:47:01;;;;;;;23.50;15.90;;;;;;;-139.48;100.00;61774.03;4998320;28;20129;-67
2021/05/03 03:49:45;;;;;;;22.08;15.75;;;;;;;-139.48;100.00;61774.03;5013147;28;20053;-66
2021/05/03 03:52:30;;;;;;;23.17;16.25;;;;;;;-139.48;100.00;61774.03;4998214;28;20122;-67
2021/05/03 03:55:14;;;;;;;22.80;15.55;;;;;;;-139.48;100.00;61774.03;5013154;28;20045;-67
2021/05/03 03:57:58;;;;;;;23.45;15.93;;;;;;;-139.48;100.00;61774.03;5012896;28;20056;-67
2021/05/03 04:00:42;;;;;;;25.38;17.58;;;;;;;-139.48;100.00;61774.03;5000611;28;20048;-66
2021/05/03 04:03:26;;;;;;;25.77;16.15;;;;;;;-139.48;100.00;61774.03;5016827;28;20054;-67
2021/05/03 04:09:06;;;;;;;25.33;16.45;;;;;;;-139.48;100.00;61774.03;5016648;28;20099;-67
2021/05/03 04:26:29;;;;;;;24.92;16.65;;;;;;;-139.48;100.00;61774.03;5001770;28;20573;-68
2021/05/03 04:29:13;;;;;;;25.02;16.90;;;;;;;-139.48;100.00;61774.03;5016480;28;20049;-67
2021/05/03 04:31:57;;;;;;;24.77;16.80;;;;;;;-139.48;100.00;61774.03;5016577;28;20533;-67
2021/05/03 04:34:41;;;;;;;23.13;15.73;;;;;;;-139.48;100.00;61774.03;5001070;28;20112;-67
2021/05/03 04:37:24;;;;;;;24.08;16.83;;;;;;;-139.48;100.00;61774.03;5016088;28;20180;-67
2021/05/03 04:40:09;;;;;;;25.35;16.38;;;;;;;-139.48;100.00;61774.03;4987550;28;20072;-67
2021/05/03 04:42:54;;;;;;;24.75;15.73;;;;;;;-139.48;100.00;61774.03;5015775;28;20052;-67
2021/05/03 04:45:38;;;;;;;21.98;15.35;;;;;;;-139.48;100.00;61774.03;5001166;28;20052;-66
2021/05/03 04:48:22;;;;;;;25.73;16.38;;;;;;;-139.48;100.00;61774.03;5015913;28;20057;-67
2021/05/03 04:51:06;;;;;;;26.40;16.23;;;;;;;-139.48;100.00;61774.03;5001178;28;20053;-67
2021/05/03 04:53:50;;;;;;;22.10;15.32;;;;;;;-139.48;100.00;61774.03;5000903;28;20065;-67
2021/05/03 04:56:34;;;;;;;24.23;15.68;;;;;;;-139.48;100.00;61774.03;5015898;28;20104;-67
2021/05/03 04:59:18;;;;;;;23.55;15.27;;;;;;;-139.48;100.00;61774.03;5015745;28;20056;-67
2021/05/03 05:02:02;;;;;;;22.42;15.10;;;;;;;-139.48;100.00;61774.03;5015778;28;20137;-67
2021/05/03 05:04:46;;;;;;;23.60;15.65;;;;;;;-139.48;100.00;61774.03;5000598;28;20088;-66
2021/05/03 05:07:30;;;;;;;20.95;14.75;;;;;;;-139.48;100.00;61774.03;5000524;28;20045;-67
2021/05/03 05:10:14;;;;;;;27.02;15.95;;;;;;;-139.48;100.00;61774.03;5000980;28;20068;-67
2021/05/03 05:12:58;;;;;;;20.70;14.65;;;;;;;-139.48;100.00;61774.03;4999783;28;20427;-67
2021/05/03 05:15:42;;;;;;;20.98;14.77;;;;;;;-139.48;100.00;61774.03;5015406;28;20128;-66
2021/05/03 05:18:26;;;;;;;20.02;14.63;;;;;;;-139.48;100.00;61774.03;5000562;28;20112;-67
2021/05/03 05:21:10;;;;;;;22.70;16.05;;;;;;;-139.48;100.00;61774.03;5000126;28;20469;-66
2021/05/03 05:23:54;;;;;;;22.17;14.82;;;;;;;-139.48;100.00;61774.03;5000519;28;20099;-67
2021/05/03 05:26:38;;;;;;;19.92;13.90;;;;;;;-139.48;100.00;61774.03;5000225;28;20430;-66
2021/05/03 05:29:25;;;;;;;20.38;14.48;;;;;;;-139.48;100.00;61774.03;5014977;28;20115;-66
2021/05/03 05:32:09;;;;;;;19.27;13.50;;;;;;;-139.48;100.00;61774.03;5015390;28;20129;-66
2021/05/03 05:34:53;;;;;;;19.65;13.60;;;;;;;-139.48;100.00;61774.03;5000219;28;20507;-67
2021/05/03 05:37:37;;;;;;;20.08;14.10;;;;;;;-139.48;100.00;61774.03;5015020;28;20057;-67
2021/05/03 05:40:21;;;;;;;20.98;13.60;;;;;;;-139.48;100.00;61774.03;4999901;28;20103;-67
2021/05/03 05:43:06;;;;;;;20.67;14.50;;;;;;;-139.48;100.00;61774.03;5000121;28;20481;-66
2021/05/03 05:45:50;;;;;;;17.55;12.68;;;;;;;-139.48;100.00;61774.03;5014704;28;20121;-65
2021/05/03 05:48:35;;;;;;;18.25;12.75;;;;;;;-139.48;100.00;61774.03;5014487;28;20429;-67
2021/05/03 05:51:19;;;;;;;19.75;13.40;;;;;;;-139.48;100.00;61774.03;5014762;28;20084;-66
2021/05/03 05:54:03;;;;;;;16.38;12.40;;;;;;;-139.48;100.00;61774.03;5014539;28;20048;-67
2021/05/03 05:56:47;;;;;;;18.45;12.45;;;;;;;-139.48;100.00;61774.03;5014457;28;20053;-66
2021/05/03 05:59:32;;;;;;;14.55;9.00;;;;;;;-139.48;100.00;61774.03;4985686;28;20517;-68
2021/05/03 06:02:15;;;;;;;15.27;11.18;;;;;;;-139.48;100.00;61774.03;5014312;28;20049;-67
2021/05/03 06:04:59;;;;;;;14.63;11.10;;;;;;;-139.48;100.00;61774.03;4986060;28;20096;-66
2021/05/03 06:07:43;;;;;;;16.92;11.70;;;;;;;-139.48;100.00;61774.03;5014177;28;20068;-67
2021/05/03 06:10:27;;;;;;;15.18;11.68;;;;;;;-139.48;100.00;61774.03;4999642;28;20133;-66
2021/05/03 06:13:11;;;;;;;14.23;11.15;;;;;;;-139.48;100.00;61774.03;5014239;28;20052;-67
2021/05/03 06:15:56;;;;;;;15.95;11.05;;;;;;;-139.48;100.00;61774.03;4999461;28;20141;-66
2021/05/03 06:18:39;;;;;;;;;;;;;;;-139.48;100.00;61774.03;5014495;28;20052;-67
2021/05/03 06:21:24;;;;;;;14.40;10.73;;;;;;;-139.48;100.00;61774.03;5013954;28;20382;-66
2021/05/03 06:24:08;;;;;;;15.88;11.30;;;;;;;-139.48;100.00;61774.03;5014251;28;20290;-67
2021/05/03 06:26:52;;;;;;;14.77;10.48;;;;;;;-139.48;100.00;61774.03;5013997;28;20096;-67
2021/05/03 06:29:35;;;;;;;13.73;10.40;;;;;;;-139.48;100.00;61774.03;5013965;28;20462;-67
2021/05/03 06:32:20;;;;;;;13.85;10.60;;;;;;;-139.48;100.00;61774.03;4986444;28;20100;-67
2021/05/03 06:35:04;;;;;;;14.68;10.50;;;;;;;-139.48;100.00;61774.03;4998950;28;20565;-68
2021/05/03 06:37:50;;;;;;;14.88;9.98;;;;;;;-139.48;100.00;61774.03;5013924;28;20407;-68
2021/05/03 06:40:34;;;;;;;14.88;10.63;;;;;;;-139.48;100.00;61774.03;4998830;28;20095;-68
2021/05/03 06:43:18;;;;;;;12.02;8.00;;;;;;;-139.48;100.00;61774.03;4998826;28;20048;-68
2021/05/03 06:46:02;;;;;;;;;;;;;;;-139.48;100.00;61774.03;5014343;28;20104;-68
2021/05/03 06:48:46;;;;;;;14.75;10.25;;;;;;;-139.48;100.00;61774.03;4985252;28;20000;-67
2021/05/03 06:51:31;;;;;;;15.10;8.30;;;;;;;-139.48;100.00;61774.03;4999012;28;20053;-67
2021/05/03 06:54:15;;;;;;;12.25;9.85;;;;;;;-139.48;100.00;61774.03;4998635;28;20045;-67
2021/05/03 06:56:59;;;;;;;12.43;8.88;;;;;;;-139.48;100.00;61774.03;4998818;28;20639;-68
2021/05/03 06:59:44;;;;;;;14.43;10.13;;;;;;;-139.48;100.00;61774.03;5013631;28;20119;-68
2021/05/03 07:02:28;;;;;;;13.05;10.48;;;;;;;-139.48;100.00;61774.03;5013720;28;20052;-68
2021/05/03 07:05:12;;;;;;;12.73;9.80;;;;;;;-139.48;100.00;61774.03;4998674;28;20088;-67
2021/05/03 07:07:56;;;;;;;12.05;9.38;;;;;;;-139.48;100.00;61774.03;4998654;28;20088;-67
2021/05/03 07:10:44;;;;;;;13.82;10.05;;;;;;;-139.48;100.00;61774.03;4998711;28;20095;-68
2021/05/03 07:13:28;;;;;;;14.30;10.20;;;;;;;-139.48;100.00;61774.03;5013334;28;20060;-68
2021/05/03 07:16:12;;;;;;;13.75;8.70;;;;;;;-139.48;100.00;61774.03;5013200;28;20219;-68
2021/05/03 07:18:55;;;;;;;12.90;9.98;;;;;;;-139.48;100.00;61774.03;5013519;28;20057;-68
2021/05/03 07:21:40;;;;;;;;;;;;;;;-139.48;100.00;61774.03;4999118;28;20084;-68
2021/05/03 07:24:24;;;;;;;13.90;10.38;;;;;;;-139.48;100.00;61774.03;5013496;28;20425;-68
2021/05/03 07:27:10;;;;;;;13.05;10.13;;;;;;;-139.48;100.00;61774.03;4984801;28;20048;-68
2021/05/03 07:29:54;;;;;;;12.82;10.27;;;;;;;-139.48;100.00;61774.03;4998332;28;20056;-68
2021/05/03 07:32:38;;;;;;;13.30;10.50;;;;;;;-139.48;100.00;61774.03;5013689;28;20100;-68
2021/05/03 07:35:22;;;;;;;14.48;9.77;;;;;;;-139.48;100.00;61774.03;5000729;28;20088;-67
2021/05/03 07:38:05;;;;;;;15.27;9.93;;;;;;;-139.48;100.00;61774.03;5017056;28;20052;-68
2021/05/03 07:40:49;;;;;;;15.30;10.63;;;;;;;-139.48;100.00;61774.03;5017339;28;20104;-68
2021/05/03 07:43:35;;;;;;;14.68;10.13;;;;;;;-139.48;100.00;61774.03;5002699;28;20561;-68
2021/05/03 07:46:25;;;;;;;14.57;10.82;;;;;;;-139.48;100.00;61774.03;5016969;28;20052;-67
2021/05/03 07:49:09;;;;;;;13.50;10.48;;;;;;;-139.48;100.00;61774.03;5002150;28;20049;-67
2021/05/03 07:51:53;;;;;;;13.65;9.88;;;;;;;-139.48;100.00;61774.03;5016780;28;20069;-68
2021/05/03 07:54:37;;;;;;;14.00;8.73;;;;;;;-139.48;100.00;61774.03;5001850;28;20128;-68
2021/05/03 07:57:21;;;;;;;14.10;10.18;;;;;;;-139.48;100.00;61774.03;5016746;28;20068;-67
2021/05/03 08:00:06;;;;;;;14.23;10.35;;;;;;;-139.48;100.00;61774.03;5016680;28;20068;-68
2021/05/03 08:02:50;;;;;;;13.15;9.63;;;;;;;-139.48;100.00;61774.03;5016702;28;20056;-68
2021/05/03 08:05:35;;;;;;;12.80;9.82;;;;;;;-139.48;100.00;61774.03;5002010;28;20088;-68
2021/05/03 08:08:18;;;;;;;14.85;9.40;;;;;;;-139.48;100.00;61774.03;5016522;28;20045;-68
2021/05/03 08:11:02;;;;;;;14.88;10.27;;;;;;;-139.48;100.00;61774.03;5016436;28;20059;-68
2021/05/03 08:13:47;;;;;;;14.07;9.80;;;;;;;-139.48;100.00;61774.03;4988048;28;20056;-68
2021/05/03 08:16:36;;;;;;;12.40;9.75;;;;;;;-139.48;100.00;61774.03;5002045;28;20045;-68
2021/05/03 08:19:22;;;;;;;12.10;8.80;;;;;;;-139.48;100.00;61774.03;4988613;28;20049;-68
2021/05/03 08:22:06;;;;;;;14.82;11.52;;;;;;;-139.48;100.00;61774.03;5001862;28;20125;-68
2021/05/03 08:24:50;;;;;;;14.07;10.98;;;;;;;-139.48;100.00;61774.03;5001536;28;20146;-67
2021/05/03 08:27:34;;;;;;;13.63;9.65;;;;;;;-139.48;100.00;61774.03;5016143;28;20061;-68
2021/05/03 08:30:19;;;;;;;14.15;10.02;;;;;;;-139.48;100.00;61774.03;5001533;28;20056;-68
2021/05/03 08:33:03;;;;;;;11.80;9.27;;;;;;;-139.48;100.00;61774.03;4987883;28;20053;-68
2021/05/03 08:35:48;;;;;;;13.23;9.27;;;;;;;-139.48;100.00;61774.03;4987521;28;20044;-68
2021/05/03 08:38:32;;;;;;;11.23;7.53;;;;;;;-139.48;100.00;61774.03;5001297;28;20048;-67
2021/05/03 08:41:16;;;;;;;11.18;8.68;;;;;;;-139.48;100.00;61774.03;5015958;28;20075;-68
2021/05/03 08:44:00;;;;;;;;;;;;;;;-139.48;100.00;61774.03;5016217;28;20056;-68
2021/05/03 08:46:46;;;;;;;11.90;8.18;;;;;;;-139.48;100.00;61774.03;5014828;28;20019;-67
2021/05/03 08:52:43;;;;;;;14.40;8.30;;;;;;;-139.48;100.00;61774.03;5015668;28;20052;-68
2021/05/03 08:55:27;;;;;;;;;;;;;;;-139.48;100.00;61774.03;4989052;28;20402;-68
2021/05/03 08:58:12;;;;;;;11.63;8.60;;;;;;;-139.48;100.00;61774.03;5000553;28;19929;-67
2021/05/03 09:00:56;;;;;;;10.93;8.07;;;;;;;-139.48;100.00;61774.03;5000921;28;20099;-69
2021/05/03 09:03:40;;;;;;;13.68;9.38;;;;;;;-139.48;100.00;61774.03;5015483;28;20096;-67
2021/05/03 09:06:26;;;;;;;11.77;9.38;;;;;;;-139.48;100.00;61774.03;5000554;28;20104;-68
2021/05/03 09:09:11;;;;;;;12.48;9.98;;;;;;;-139.48;100.00;61774.03;5000440;28;20111;-68
2021/05/03 09:12:05;;;;;;;14.80;9.52;;;;;;;-139.48;100.00;61774.03;5000851;28;20057;-68
2021/05/03 09:14:59;;;;;;;13.98;10.05;;;;;;;-139.48;100.00;61774.03;5015218;28;20040;-67
2021/05/03 09:17:44;;;;;;;10.50;7.75;;;;;;;-139.48;100.00;61774.03;5015082;28;20103;-68
2021/05/03 09:20:29;;;;;;;11.18;8.15;;;;;;;-139.48;100.00;61774.03;5015427;28;20249;-68
2021/05/03 09:23:19;;;;;;;11.43;8.13;;;;;;;-139.48;100.00;61774.03;5000740;28;20096;-68
2021/05/03 09:26:07;;;;;;;10.00;8.18;;;;;;;-139.48;100.00;61774.03;5014938;28;20041;-68
2021/05/03 09:28:51;;;;;;;11.30;8.50;;;;;;;-139.48;100.00;61774.03;5000655;28;20048;-68
2021/05/03 09:31:54;;;;;;;10.55;7.35;;;;;;;-139.48;100.00;61774.03;4986574;28;20073;-68
2021/05/03 09:34:45;;;;;;;10.38;6.60;;;;;;;-139.48;100.00;61774.03;4988351;28;20044;-68
2021/05/03 09:37:34;;;;;;;9.05;7.32;;;;;;;-139.48;100.00;61774.03;5000372;28;20522;-68
2021/05/03 09:40:20;;;;;;;9.77;7.03;;;;;;;-139.48;100.00;61774.03;5000608;28;20252;-68
2021/05/03 09:43:04;;;;;;;9.48;7.50;;;;;;;-139.48;100.00;61774.03;5014847;28;20574;-68
2021/05/03 09:45:48;;;;;;;11.68;8.75;;;;;;;-139.48;100.00;61774.03;5000205;28;20407;-68
2021/05/03 09:48:32;;;;;;;16.25;7.50;;;;;;;-139.48;100.00;61774.03;5014953;28;20410;-68
2021/05/03 09:51:30;;;;;;;11.23;7.65;;;;;;;-139.48;100.00;61774.03;5014981;28;20068;-69
2021/05/03 09:54:31;;;;;;;10.68;6.47;;;;;;;-139.48;100.00;61774.03;5014651;28;20418;-68
2021/05/03 09:57:15;;;;;;;12.52;8.20;;;;;;;-139.48;100.00;61774.03;5014488;28;20526;-66
2021/05/03 10:00:01;;;;;;;9.52;7.18;;;;;;;-139.48;100.00;61774.03;4999627;28;20125;-67
2021/05/03 10:02:45;;;;;;;9.27;7.78;;;;;;;-139.48;100.00;61774.03;4999804;28;20057;-66
2021/05/03 10:05:29;;;;;;;11.55;7.57;;;;;;;-139.48;100.00;61774.03;5014428;28;20077;-67
2021/05/03 10:08:13;;;;;;;8.57;6.20;;;;;;;-139.48;100.00;61774.03;5014438;28;20515;-67
2021/05/03 10:11:04;;;;;;;8.50;7.28;;;;;;;-139.48;100.00;61774.03;5014786;28;20049;-68
2021/05/03 10:13:48;;;;;;;9.00;6.65;;;;;;;-139.48;100.00;61774.03;5014046;28;20477;-67
2021/05/03 10:16:32;;;;;;;7.80;6.15;;;;;;;-139.48;100.00;61774.03;5014263;28;20032;-67
2021/05/03 10:19:19;;;;;;;5.25;4.25;;;;;;;-139.48;100.00;61774.03;4999671;28;20076;-67
2021/05/03 10:22:04;;;;;;;9.02;4.43;;;;;;;-139.48;100.00;61774.03;4999126;28;20064;-66
2021/05/03 10:25:17;;;;;;;6.03;5.43;;;;;;;-139.48;100.00;61774.03;4999474;28;20551;-65
2021/05/03 10:28:01;;;;;;;8.60;6.25;;;;;;;-139.48;100.00;61774.03;5006887;28;20577;-67
2021/05/03 10:30:48;;;;;;;8.00;6.05;;;;;;;-139.48;100.00;61774.03;4999355;28;20095;-66
2021/05/03 10:33:37;;;;;;;9.00;4.75;;;;;;;-139.48;100.00;61774.03;5013719;28;20052;-67
2021/05/03 10:36:35;;;;;;;6.25;4.43;;;;;;;-139.48;100.00;61774.03;4999069;28;20052;-67
2021/05/03 10:39:29;;;;;;;5.95;5.10;;;;;;;-139.48;100.00;61774.03;4998818;28;20072;-67
2021/05/03 10:42:13;;;;;;;6.43;5.15;;;;;;;-139.48;100.00;61774.03;5013859;28;20057;-66
2021/05/03 10:45:16;;;;;;;7.97;4.82;;;;;;;-139.48;100.00;61774.03;5013663;28;20095;-67
2021/05/03 10:48:30;;;;;;;7.30;6.03;;;;;;;-139.48;100.00;61774.03;4999667;28;20099;-67
2021/05/03 10:54:35;;;;;;;8.55;6.85;;;;;;;-139.48;100.00;61774.03;5013666;28;20506;-66
2021/05/03 10:57:20;;;;;;;5.85;3.95;;;;;;;-139.48;100.00;61774.03;5013620;28;20084;-67
2021/05/03 11:00:08;;;;;;;5.38;4.05;;;;;;;-139.48;100.00;61774.03;5013404;28;20411;-67
2021/05/03 11:02:52;;;;;;;6.32;4.38;;;;;;;-139.48;100.00;61774.03;4998665;28;20088;-67
2021/05/03 11:57:17;;;;;;;2.90;2.63;;;;;;;-139.48;100.00;61774.03;4993874;28;20564;-64
2021/05/03 12:00:04;;;;;;;6.38;3.20;;;;;;;-139.48;100.00;61774.03;4993212;28;20062;-64
2021/05/03 12:03:00;;;;;;;11.05;5.05;;;;;;;-139.48;100.00;61774.03;4994907;28;20655;-64
2021/05/03 12:05:46;;;;;;;5.45;4.70;;;;;;;-139.48;100.00;61774.03;4993599;28;20089;-64
2021/05/03 12:08:29;;;;;;;4.93;4.25;;;;;;;-139.48;100.00;61774.03;4992272;28;20573;-64
2021/05/03 12:11:13;;;;;;;6.25;4.28;;;;;;;-139.48;100.00;61774.03;4992579;28;20533;-67
2021/05/03 12:13:57;;;;;;;4.97;4.20;;;;;;;-139.48;100.00;61774.03;4993552;28;20128;-64
2021/05/03 12:16:42;;;;;;;5.90;3.90;;;;;;;-139.48;100.00;61774.03;4978701;28;20092;-64
2021/05/03 12:19:26;;;;;;;5.93;4.10;;;;;;;-139.48;100.00;61774.03;4993217;28;20053;-64
2021/05/03 12:22:10;;;;;;;6.30;4.38;;;;;;;-139.48;100.00;61774.03;4995448;28;20053;-64
2021/05/03 12:24:59;;;;;;;4.80;4.25;;;;;;;-139.48;100.00;61774.03;4995958;28;20096;-64
2021/05/03 12:27:43;;;;;;;7.68;5.30;;;;;;;-139.48;100.00;61774.03;4995605;28;20410;-64
2021/05/03 12:30:26;;;;;;;5.35;4.78;;;;;;;-139.48;100.00;61774.03;4995864;28;20413;-64
2021/05/03 12:33:18;;;;;;;8.10;5.03;;;;;;;-139.48;100.00;61774.03;4996058;28;20454;-64
2021/05/03 12:36:08;;;;;;;6.28;4.50;;;;;;;-139.48;100.00;61774.03;4981712;28;20129;-64
2021/05/03 12:39:07;;;;;;;6.35;4.97;;;;;;;-139.48;100.00;61774.03;4995366;28;20092;-64
2021/05/03 12:41:51;;;;;;;7.88;5.55;;;;;;;-139.48;100.00;61774.03;4995895;28;20060;-64
2021/05/03 12:44:49;;;;;;;5.72;4.78;;;;;;;-139.48;100.00;61774.03;4995804;28;20041;-64
2021/05/03 12:47:45;;;;;;;5.68;4.07;;;;;;;-139.48;100.00;61774.03;4995539;28;20205;-64
2021/05/03 13:00:00;;;;;;;4.68;4.20;;;;;;;-139.48;100.00;61774.03;4995119;28;20077;-64
2021/05/03 13:03:03;;;;;;;6.80;4.63;;;;;;;-139.48;100.00;61774.03;4996107;28;20101;-64
2021/05/03 13:05:56;;;;;;;6.82;4.00;;;;;;;-139.48;100.00;61774.03;4995131;28;20049;-65
2021/05/03 13:09:00;;;;;;;5.38;4.40;;;;;;;-139.48;100.00;61774.03;4995067;28;20092;-64
2021/05/03 13:25:08;;;;;;;;;;;;;;;-139.48;100.00;61774.03;4995430;28;20073;-64
2021/05/03 13:28:06;;;;;;;7.22;4.80;;;;;;;-139.48;100.00;61774.03;4994954;28;19968;-64
2021/05/03 13:30:50;;;;;;;7.93;5.40;;;;;;;-139.48;100.00;61774.03;4995735;28;20093;-64
2021/05/03 13:33:34;;;;;;;6.82;5.18;;;;;;;-139.48;100.00;61774.03;4994296;28;20045;-65
2021/05/03 13:36:18;;;;;;;9.40;5.20;;;;;;;-139.48;100.00;61774.03;4994524;28;20121;-65
2021/05/03 13:39:04;;;;;;;5.93;5.07;;;;;;;-139.48;100.00;61774.03;4995454;28;20065;-65
2021/05/03 13:41:49;;;;;;;7.75;5.10;;;;;;;-139.48;100.00;61774.03;4995540;28;20169;-64
2021/05/03 13:44:33;;;;;;;7.32;4.60;;;;;;;-139.48;100.00;61774.03;4995409;28;20046;-64
2021/05/03 13:47:17;;;;;;;7.72;4.82;;;;;;;-139.48;100.00;61774.03;4994449;28;20121;-64
2021/05/03 13:50:03;;;;;;;5.60;4.75;;;;;;;-139.48;100.00;61774.03;4995207;28;20109;-64
2021/05/03 13:52:47;;;;;;;5.32;4.55;;;;;;;-139.48;100.00;61774.03;4995025;28;20143;-64
2021/05/03 13:55:31;;;;;;;8.25;4.95;;;;;;;-139.48;100.00;61774.03;4980164;28;20072;-64
2021/05/03 13:58:15;;;;;;;6.30;5.15;;;;;;;-139.48;100.00;61774.03;4995139;28;20045;-66
2021/05/03 14:01:00;;;;;;;6.80;4.97;;;;;;;-139.48;100.00;61774.03;4994795;28;20052;-64
2021/05/03 14:03:43;;;;;;;;;;;;;;;-139.48;100.00;61774.03;4994428;28;20137;-64
2021/05/03 14:06:28;;;;;;;6.47;5.23;;;;;;;-139.48;100.00;61774.03;4994131;28;19968;-66